createdAt,value
2023-03-23T15:58:13.205Z,6.00
2023-03-23T15:58:47.213Z,6.80
2023-03-23T15:59:20.789Z,7.00
2023-03-23T15:59:54.497Z,8.10
2023-03-23T16:00:29.856Z,5.50
2023-03-23T16:01:08.513Z,5.10
2023-03-23T16:01:43.741Z,5.70
2023-03-23T16:02:24.277Z,5.70
2023-03-23T16:03:02.410Z,6.20
2023-03-23T16:03:59.127Z,5.50
2023-03-23T16:04:33.830Z,6.70
2023-03-23T16:05:15.213Z,5.50
2023-03-23T16:05:48.843Z,6.30
2023-03-23T16:06:25.738Z,5.90
2023-03-23T16:07:01.286Z,8.60
2023-03-23T16:07:38.574Z,6.50
2023-03-23T16:08:12.312Z,7.80
2023-03-23T16:08:54.618Z,6.80
2023-03-23T16:09:28.655Z,6.10
2023-03-23T16:10:03.856Z,6.90
2023-03-23T16:10:38.224Z,6.10
2023-03-23T16:11:14.218Z,6.80
2023-03-23T16:11:48.517Z,7.70
2023-03-23T16:12:22.304Z,10.60
2023-03-23T16:12:56.186Z,6.30
2023-03-23T16:13:35.408Z,5.90
2023-03-23T16:14:11.592Z,7.40
2023-03-23T16:14:45.151Z,8.90
2023-03-23T16:15:19.444Z,6.20
2023-03-23T16:15:53.272Z,6.50
2023-03-23T16:16:30.144Z,5.80
2023-03-23T16:17:04.061Z,6.00
2023-03-23T16:17:46.926Z,7.40
2023-03-23T16:18:22.813Z,8.20
2023-03-23T16:18:56.496Z,5.90
2023-03-23T16:19:33.330Z,6.10
2023-03-23T16:20:14.161Z,7.70
2023-03-23T16:20:51.119Z,5.70
2023-03-23T16:21:24.923Z,6.90
2023-03-23T16:21:58.506Z,6.70
2023-03-23T16:22:32.073Z,7.20
2023-03-23T16:23:08.442Z,5.90
2023-03-23T16:23:44.871Z,5.90
2023-03-23T16:24:19.356Z,8.60
2023-03-23T16:24:55.392Z,5.60
2023-03-23T16:25:35.224Z,6.60
2023-03-23T16:26:08.950Z,8.10
2023-03-23T16:26:42.832Z,5.40
2023-03-23T16:27:21.715Z,5.80
2023-03-23T16:27:55.288Z,6.10
2023-03-23T16:28:28.847Z,5.80
2023-03-23T16:29:13.877Z,5.10
2023-03-23T16:30:03.040Z,5.90
2023-03-23T16:30:38.519Z,5.10
2023-03-23T16:31:14.614Z,5.60
2023-03-23T16:31:48.209Z,5.30
2023-03-23T16:32:21.759Z,5.10
2023-03-23T16:32:57.627Z,6.10
2023-03-23T16:33:31.686Z,6.40
2023-03-23T16:34:05.211Z,6.00
2023-03-23T16:34:39.171Z,6.90
2023-03-23T16:35:14.146Z,5.40
2023-03-23T16:35:48.082Z,8.40
2023-03-23T16:36:22.015Z,5.20
2023-03-23T16:36:56.440Z,6.40
2023-03-23T16:37:34.022Z,9.80
2023-03-23T16:38:09.246Z,6.10
2023-03-23T16:38:49.126Z,7.30
2023-03-23T16:39:24.755Z,5.70
2023-03-23T16:39:58.221Z,6.50
2023-03-23T16:40:31.992Z,6.70
2023-03-23T16:41:05.809Z,6.20
2023-03-23T16:41:41.308Z,6.40
2023-03-23T16:42:17.952Z,5.10
2023-03-23T16:42:51.754Z,7.10
2023-03-23T16:43:25.552Z,11.10
2023-03-23T16:44:01.499Z,6.50
2023-03-23T16:44:34.982Z,6.20
2023-03-23T16:45:10.032Z,6.70
2023-03-23T16:46:02.690Z,7.10
2023-03-23T16:46:36.640Z,6.30
2023-03-23T16:47:10.204Z,7.00
2023-03-23T16:47:44.637Z,5.40
2023-03-23T16:48:18.245Z,4.90
2023-03-23T16:48:51.790Z,5.20
2023-03-23T16:49:26.579Z,7.80
2023-03-23T16:50:00.194Z,5.80
2023-03-23T16:50:37.510Z,5.50
2023-03-23T16:51:11.189Z,5.60
2023-03-23T16:51:44.811Z,7.50
2023-03-23T16:52:19.161Z,5.10
2023-03-23T16:52:53.009Z,6.20
2023-03-23T16:53:26.595Z,5.20
2023-03-23T16:54:00.045Z,8.80
2023-03-23T16:54:33.469Z,8.10
2023-03-23T16:55:08.583Z,6.00
2023-03-23T16:55:48.643Z,6.60
2023-03-23T16:56:51.363Z,5.70
2023-03-23T16:58:13.031Z,6.00
2023-03-23T16:59:07.199Z,6.60
2023-03-23T16:59:46.656Z,5.40
2023-03-23T17:00:47.122Z,5.30
2023-03-23T17:01:32.112Z,6.10
2023-03-23T17:02:05.822Z,5.50
2023-03-23T17:02:42.521Z,6.80
2023-03-23T17:03:17.813Z,8.30
2023-03-23T17:03:54.581Z,9.40
2023-03-23T17:04:32.156Z,9.80
2023-03-23T17:05:06.153Z,6.70
2023-03-23T17:05:40.523Z,7.40
2023-03-23T17:06:14.297Z,13.60
2023-03-23T17:06:48.147Z,9.80
2023-03-23T17:07:21.752Z,7.70
2023-03-23T17:07:56.176Z,7.50
2023-03-23T17:08:29.768Z,9.70
2023-03-23T17:09:03.515Z,7.30
2023-03-23T17:09:37.528Z,6.80
2023-03-23T17:10:11.902Z,8.10
2023-03-23T17:10:46.198Z,8.40
2023-03-23T17:11:22.099Z,4.80
2023-03-23T17:11:55.954Z,7.00
2023-03-23T17:12:31.969Z,6.90
2023-03-23T17:13:05.564Z,5.80
2023-03-23T17:13:39.144Z,7.00
2023-03-23T17:14:14.912Z,7.40
2023-03-23T17:14:54.211Z,10.20
2023-03-23T17:15:27.817Z,9.30
2023-03-23T17:16:01.304Z,7.40
2023-03-23T17:16:34.878Z,6.30
2023-03-23T17:17:11.772Z,9.90
2023-03-23T17:17:45.596Z,5.00
2023-03-23T17:18:19.041Z,8.20
2023-03-23T17:18:52.559Z,11.80
2023-03-23T17:19:26.583Z,8.70
2023-03-23T17:20:00.222Z,7.90
2023-03-23T17:20:35.392Z,5.20
2023-03-23T17:21:08.883Z,5.50
2023-03-23T17:21:43.091Z,7.60
2023-03-23T17:22:17.063Z,6.80
2023-03-23T17:22:51.433Z,8.10
2023-03-23T17:23:25.088Z,9.90
2023-03-23T17:23:59.292Z,7.50
2023-03-23T17:24:33.314Z,9.10
2023-03-23T17:25:09.473Z,9.30
2023-03-23T17:25:45.667Z,10.20
2023-03-23T17:26:19.589Z,7.30
2023-03-23T17:26:54.693Z,7.30
2023-03-23T17:28:07.221Z,9.20
2023-03-23T17:28:41.329Z,7.70
2023-03-23T17:29:15.098Z,8.20
2023-03-23T17:29:48.829Z,7.20
2023-03-23T17:30:22.567Z,8.20
2023-03-23T17:30:56.400Z,6.30
2023-03-23T17:31:30.076Z,7.10
2023-03-23T17:32:03.660Z,7.60
2023-03-23T17:32:37.707Z,5.50
2023-03-23T17:33:12.634Z,5.30
2023-03-23T17:33:46.332Z,5.90
2023-03-23T17:34:19.959Z,6.90
2023-03-23T17:34:54.110Z,7.00
2023-03-23T17:35:27.649Z,7.70
2023-03-23T17:36:01.230Z,29.20
2023-03-23T17:36:34.932Z,60.80
2023-03-23T17:37:11.046Z,57.00
2023-03-23T17:37:44.870Z,76.70
2023-03-23T17:38:18.667Z,61.40
2023-03-23T17:38:52.331Z,32.20
2023-03-23T17:39:26.244Z,39.80
2023-03-23T17:39:59.897Z,45.30
2023-03-23T17:40:33.403Z,34.30
2023-03-23T17:41:08.702Z,24.40
2023-03-23T17:41:42.599Z,31.00
2023-03-23T17:42:16.397Z,31.40
2023-03-23T17:42:50.017Z,16.40
2023-03-23T17:43:23.487Z,18.70
2023-03-23T17:43:57.085Z,19.60
2023-03-23T17:44:39.851Z,22.90
2023-03-23T17:45:13.379Z,15.80
2023-03-23T17:45:47.427Z,12.00
2023-03-23T17:46:21.315Z,16.00
2023-03-23T17:46:56.672Z,11.80
2023-03-23T17:47:30.384Z,7.70
2023-03-23T17:48:08.184Z,10.70
2023-03-23T17:48:42.468Z,10.40
2023-03-23T17:49:16.066Z,8.90
2023-03-23T17:49:49.739Z,10.90
2023-03-23T17:50:23.604Z,8.20
2023-03-23T17:51:02.463Z,11.10
2023-03-23T17:51:36.273Z,11.60
2023-03-23T17:52:10.028Z,10.80
2023-03-23T17:52:43.917Z,13.60
2023-03-23T17:53:19.074Z,12.10
2023-03-23T17:53:52.589Z,8.90
2023-03-23T17:54:26.844Z,10.30
2023-03-23T17:55:00.583Z,8.80
2023-03-23T17:55:34.124Z,7.20
2023-03-23T17:56:08.302Z,8.20
2023-03-23T17:56:41.918Z,6.50
2023-03-23T17:57:15.867Z,8.40
2023-03-23T17:57:49.446Z,7.10
2023-03-23T17:58:25.365Z,7.30
2023-03-23T17:58:58.924Z,6.00
2023-03-23T17:59:32.456Z,7.30
2023-03-23T18:00:09.490Z,7.60
2023-03-23T18:00:42.897Z,7.10
2023-03-23T18:01:16.859Z,18.50
2023-03-23T18:01:50.660Z,12.90
2023-03-23T18:02:24.401Z,7.10
2023-03-23T18:02:58.269Z,7.90
2023-03-23T18:03:32.431Z,6.80
2023-03-23T18:04:06.429Z,8.10
2023-03-23T18:04:48.788Z,7.10
2023-03-23T18:05:28.089Z,8.80
2023-03-23T18:06:05.331Z,12.00
2023-03-23T18:06:38.906Z,11.80
2023-03-23T18:07:14.181Z,10.70
2023-03-23T18:07:48.060Z,11.30
2023-03-23T18:08:22.014Z,10.20
2023-03-23T18:08:55.547Z,9.80
2023-03-23T18:09:29.038Z,12.10
2023-03-23T18:10:02.632Z,12.80
2023-03-23T18:10:38.935Z,8.20
2023-03-23T18:11:12.571Z,6.70
2023-03-23T18:11:46.046Z,9.10
2023-03-23T18:12:19.640Z,6.80
2023-03-23T18:12:53.677Z,12.00
2023-03-23T18:13:29.165Z,7.80
2023-03-23T18:14:03.244Z,7.40
2023-03-23T18:14:39.216Z,7.40
2023-03-23T18:15:13.323Z,9.60
2023-03-23T18:15:47.146Z,8.60
2023-03-23T18:16:24.493Z,10.20
2023-03-23T18:16:58.539Z,7.40
2023-03-23T18:17:35.565Z,5.70
2023-03-23T18:18:10.551Z,6.50
2023-03-23T18:18:46.719Z,7.70
2023-03-23T18:19:37.159Z,6.20
2023-03-23T18:20:25.760Z,6.80
2023-03-23T18:21:16.896Z,6.70
2023-03-23T18:22:16.701Z,9.30
2023-03-23T18:23:00.292Z,9.60
2023-03-23T18:23:59.576Z,5.00
2023-03-23T18:25:00.165Z,5.10
2023-03-23T18:25:44.397Z,8.00
2023-03-23T18:26:28.377Z,7.60
2023-03-23T18:27:09.120Z,9.40
2023-03-23T18:28:22.015Z,5.10
2023-03-23T18:29:06.157Z,7.70
2023-03-23T18:30:09.911Z,7.80
2023-03-23T18:31:14.023Z,7.20
2023-03-23T18:32:11.956Z,7.70
2023-03-23T18:32:53.832Z,6.60
2023-03-23T18:33:36.887Z,8.30
2023-03-23T18:34:14.725Z,7.60
2023-03-23T18:35:32.216Z,8.70
2023-03-23T18:36:23.068Z,8.60
2023-03-23T18:37:06.727Z,6.70
2023-03-23T18:37:51.825Z,6.80
2023-03-23T18:38:34.239Z,6.70
2023-03-23T18:39:13.847Z,8.00
2023-03-23T18:39:59.486Z,9.50
2023-03-23T18:41:13.934Z,7.50
2023-03-23T18:41:57.792Z,9.20
2023-03-23T18:42:34.314Z,6.40
2023-03-23T18:43:11.724Z,5.70
2023-03-23T18:43:46.464Z,10.10
2023-03-23T18:44:26.298Z,9.00
2023-03-23T18:45:02.262Z,6.90
2023-03-23T18:45:57.627Z,7.20
2023-03-23T18:46:39.239Z,9.70
2023-03-23T18:47:18.792Z,8.00
2023-03-23T18:48:01.562Z,9.30
2023-03-23T18:48:49.321Z,9.10
2023-03-23T18:49:32.178Z,9.60
2023-03-23T18:50:12.407Z,12.40
2023-03-23T18:51:01.309Z,8.30
2023-03-23T18:51:40.433Z,9.10
2023-03-23T18:52:24.580Z,9.20
2023-03-23T18:53:03.899Z,10.60
2023-03-23T18:53:49.693Z,9.00
2023-03-23T18:54:26.720Z,8.20
2023-03-23T18:55:04.588Z,8.10
2023-03-23T18:55:38.910Z,8.50
2023-03-23T18:56:19.869Z,11.40
2023-03-23T18:57:00.401Z,9.20
2023-03-23T18:57:46.571Z,7.40
2023-03-23T18:58:28.315Z,9.70
2023-03-23T18:59:06.675Z,11.30
2023-03-23T18:59:43.310Z,11.40
2023-03-23T19:00:24.389Z,7.80
2023-03-23T19:01:03.323Z,9.00
2023-03-23T19:01:40.114Z,7.30
2023-03-23T19:02:14.740Z,11.50
2023-03-23T19:02:51.915Z,10.30
2023-03-23T19:03:26.322Z,7.40
2023-03-23T19:04:00.455Z,8.60
2023-03-23T19:04:34.565Z,9.50
2023-03-23T19:05:13.661Z,9.70
2023-03-23T19:05:48.720Z,10.10
2023-03-23T19:06:25.119Z,11.20
2023-03-23T19:07:03.677Z,11.00
2023-03-23T19:07:38.695Z,11.50
2023-03-23T19:08:15.562Z,10.50
2023-03-23T19:08:50.367Z,12.00
2023-03-23T19:09:25.844Z,9.20
2023-03-23T19:09:59.907Z,9.20
2023-03-23T19:10:37.873Z,11.90
2023-03-23T19:11:11.716Z,9.60
2023-03-23T19:11:47.420Z,12.30
2023-03-23T19:12:22.576Z,10.80
2023-03-23T19:12:56.622Z,9.70
2023-03-23T19:13:31.647Z,13.00
2023-03-23T19:14:07.004Z,10.30
2023-03-23T19:14:43.999Z,11.00
2023-03-23T19:15:18.081Z,11.00
2023-03-23T19:15:53.221Z,9.20
2023-03-23T19:16:27.044Z,12.00
2023-03-23T19:17:00.865Z,10.30
2023-03-23T19:17:36.641Z,9.10
2023-03-23T19:18:10.400Z,9.50
2023-03-23T19:18:44.039Z,13.60
2023-03-23T19:19:17.605Z,12.90
2023-03-23T19:19:52.539Z,10.60
2023-03-23T19:20:58.366Z,13.00
2023-03-23T19:21:24.910Z,12.10
2023-03-23T19:22:00.141Z,13.20
2023-03-23T19:22:33.869Z,12.10
2023-03-23T19:23:08.158Z,12.40
2023-03-23T19:23:41.975Z,12.40
2023-03-23T19:24:18.173Z,9.20
2023-03-23T19:24:52.548Z,8.90
2023-03-23T19:25:27.053Z,9.10
2023-03-23T19:26:00.778Z,8.70
2023-03-23T19:28:38.453Z,10.80
2023-03-23T19:29:23.026Z,6.20
2023-03-23T19:29:44.183Z,10.90
2023-03-23T19:30:27.545Z,8.60
2023-03-23T19:31:12.191Z,9.60
2023-03-23T19:31:47.424Z,8.40
2023-03-23T19:32:27.596Z,11.60
2023-03-23T19:33:08.888Z,9.20
2023-03-23T19:33:43.928Z,9.90
2023-03-23T19:34:24.425Z,11.10
2023-03-23T19:34:59.201Z,8.60
2023-03-23T19:35:36.053Z,8.70
2023-03-23T19:36:13.205Z,9.20
2023-03-23T19:36:54.205Z,13.20
2023-03-23T19:37:34.374Z,11.50
2023-03-23T19:38:13.557Z,9.30
2023-03-23T19:38:58.351Z,10.20
2023-03-23T19:39:37.164Z,10.70
2023-03-23T19:40:31.671Z,9.50
2023-03-23T19:41:32.328Z,14.30
2023-03-23T19:42:35.555Z,10.90
2023-03-23T19:43:13.995Z,9.50
2023-03-23T19:43:52.335Z,11.10
2023-03-23T19:44:38.801Z,10.40
2023-03-23T19:45:12.706Z,10.20
2023-03-23T19:45:48.026Z,14.00
2023-03-23T19:46:31.467Z,8.90
2023-03-23T19:47:24.992Z,10.70
2023-03-23T19:48:54.826Z,9.50
2023-03-23T19:49:34.072Z,7.90
2023-03-23T19:50:24.684Z,8.10
2023-03-23T19:51:02.404Z,8.40
2023-03-23T19:51:38.536Z,13.90
2023-03-23T19:52:22.653Z,9.40
2023-03-23T19:53:01.846Z,9.40
2023-03-23T19:53:37.469Z,8.90
2023-03-23T19:54:13.613Z,8.90
2023-03-23T19:54:47.772Z,11.90
2023-03-23T19:55:22.689Z,8.00
2023-03-23T19:56:03.639Z,9.40
2023-03-23T19:56:43.902Z,9.60
2023-03-23T19:57:27.418Z,8.80
2023-03-23T19:58:07.471Z,12.60
2023-03-23T19:58:41.774Z,9.50
2023-03-23T19:59:18.832Z,9.20
2023-03-23T19:59:53.465Z,10.20
2023-03-23T20:00:36.124Z,9.30
2023-03-23T20:01:14.101Z,9.90
2023-03-23T20:01:53.037Z,9.90
2023-03-23T20:02:26.959Z,8.80
2023-03-23T20:03:04.623Z,9.20
2023-03-23T20:03:41.341Z,9.70
2023-03-23T20:04:19.045Z,9.10
2023-03-23T20:04:52.683Z,9.30
2023-03-23T20:05:53.419Z,7.10
2023-03-23T20:06:29.785Z,10.80
2023-03-23T20:07:51.522Z,8.10
2023-03-23T20:09:12.150Z,8.50
2023-03-23T20:09:48.861Z,8.50
2023-03-23T20:10:24.667Z,9.80
2023-03-23T20:11:09.048Z,8.50
2023-03-23T20:11:50.199Z,9.80
2023-03-23T20:13:10.166Z,9.50
2023-03-23T20:13:57.000Z,8.00
2023-03-23T20:14:40.936Z,8.40
2023-03-23T20:15:15.200Z,19.20
2023-03-23T20:16:04.892Z,15.10
2023-03-23T20:16:42.657Z,13.80
2023-03-23T20:17:21.924Z,14.20
2023-03-23T20:18:09.786Z,12.10
2023-03-23T20:18:59.970Z,11.60
2023-03-23T20:19:36.468Z,14.80
2023-03-23T20:20:11.204Z,9.80
2023-03-23T20:20:44.933Z,10.50
2023-03-23T20:21:22.340Z,12.90
2023-03-23T20:21:58.478Z,14.20
2023-03-23T20:22:32.279Z,14.50
2023-03-23T20:23:08.129Z,16.80
2023-03-23T20:23:43.421Z,12.90
2023-03-23T20:24:17.326Z,12.30
2023-03-23T20:24:51.796Z,14.60
2023-03-23T20:25:26.388Z,10.60
2023-03-23T20:26:47.629Z,13.30
2023-03-23T20:27:26.769Z,8.60
2023-03-23T20:28:06.534Z,9.10
2023-03-23T20:28:42.747Z,10.10
2023-03-23T20:29:16.528Z,14.90
2023-03-23T20:29:53.917Z,14.20
2023-03-23T20:30:27.394Z,11.70
2023-03-23T20:31:16.829Z,9.80
2023-03-23T20:31:58.103Z,9.30
2023-03-23T20:32:34.984Z,12.90
2023-03-23T20:33:09.652Z,12.10
2023-03-23T20:33:44.806Z,10.80
2023-03-23T20:34:29.430Z,8.30
2023-03-23T20:35:09.522Z,11.80
2023-03-23T20:35:43.425Z,7.60
2023-03-23T20:36:20.185Z,9.70
2023-03-23T20:36:54.862Z,6.30
2023-03-23T20:37:31.337Z,9.40
2023-03-23T20:38:05.987Z,10.80
2023-03-23T20:38:41.906Z,8.40
2023-03-23T20:39:21.666Z,7.20
2023-03-23T20:39:55.657Z,9.30
2023-03-23T20:40:29.720Z,9.10
2023-03-23T20:41:06.435Z,8.30
2023-03-23T20:41:40.570Z,9.10
2023-03-23T20:42:14.906Z,8.40
2023-03-23T20:42:49.286Z,11.90
2023-03-23T20:43:29.378Z,9.20
2023-03-23T20:44:04.345Z,16.20
2023-03-23T20:44:39.700Z,12.00
2023-03-23T20:45:14.363Z,13.30
2023-03-23T20:45:48.021Z,14.00
2023-03-23T20:46:26.015Z,9.90
2023-03-23T20:46:59.918Z,6.80
2023-03-23T20:47:33.541Z,9.70
2023-03-23T20:48:07.121Z,13.70
2023-03-23T20:48:41.389Z,11.60
2023-03-23T20:49:16.128Z,14.80
2023-03-23T20:49:53.180Z,14.30
2023-03-23T20:50:27.540Z,15.40
2023-03-23T20:51:03.474Z,8.80
2023-03-23T20:51:37.859Z,9.60
2023-03-23T20:52:12.601Z,10.50
2023-03-23T20:52:46.444Z,8.20
2023-03-23T20:53:20.640Z,9.60
2023-03-23T20:53:54.986Z,8.70
2023-03-23T20:54:28.540Z,9.60
2023-03-23T20:55:02.787Z,6.60
2023-03-23T20:55:36.621Z,8.30
2023-03-23T20:56:11.061Z,13.70
2023-03-23T20:56:45.250Z,8.50
2023-03-23T20:57:19.486Z,10.20
2023-03-23T20:57:52.958Z,7.20
2023-03-23T20:58:28.128Z,6.50
2023-03-23T20:59:02.726Z,9.10
2023-03-23T20:59:36.620Z,9.40
2023-03-23T21:00:15.496Z,6.80
2023-03-23T21:00:51.588Z,7.10
2023-03-23T21:01:26.379Z,7.60
2023-03-23T21:02:00.011Z,7.30
2023-03-23T21:02:34.491Z,7.10
2023-03-23T21:03:11.602Z,8.60
2023-03-23T21:03:45.759Z,8.30
2023-03-23T21:04:23.139Z,6.80
2023-03-23T21:04:58.369Z,8.60
2023-03-23T21:05:32.027Z,7.60
2023-03-23T21:06:09.411Z,7.20
2023-03-23T21:06:44.505Z,6.30
2023-03-23T21:07:18.408Z,5.70
2023-03-23T21:07:52.933Z,7.60
2023-03-23T21:08:26.814Z,7.40
2023-03-23T21:09:00.561Z,5.00
2023-03-23T21:09:35.058Z,6.90
2023-03-23T21:10:08.896Z,4.60
2023-03-23T21:10:43.651Z,6.00
2023-03-23T21:11:20.037Z,5.50
2023-03-23T21:11:54.216Z,7.90
2023-03-23T21:12:27.980Z,6.10
2023-03-23T21:13:01.512Z,7.60
2023-03-23T21:13:35.632Z,7.50
2023-03-23T21:14:10.150Z,5.10
2023-03-23T21:14:45.170Z,5.60
2023-03-23T21:15:18.918Z,7.10
2023-03-23T21:15:53.615Z,6.30
2023-03-23T21:16:27.588Z,5.30
2023-03-23T21:17:01.894Z,6.00
2023-03-23T21:17:35.936Z,5.60
2023-03-23T21:18:11.024Z,9.40
2023-03-23T21:18:45.318Z,7.50
2023-03-23T21:19:19.786Z,6.20
2023-03-23T21:19:53.814Z,8.20
2023-03-23T21:20:27.534Z,5.00
2023-03-23T21:21:01.756Z,6.10
2023-03-23T21:21:35.550Z,5.60
2023-03-23T21:22:09.994Z,6.80
2023-03-23T21:22:43.534Z,6.50
2023-03-23T21:23:19.748Z,9.50
2023-03-23T21:23:53.698Z,6.30
2023-03-23T21:24:29.926Z,5.70
2023-03-23T21:25:03.961Z,6.10
2023-03-23T21:25:44.805Z,6.10
2023-03-23T21:26:21.028Z,5.20
2023-03-23T21:26:56.952Z,7.30
2023-03-23T21:27:31.101Z,6.90
2023-03-23T21:28:07.183Z,6.20
2023-03-23T21:28:40.919Z,5.90
2023-03-23T21:29:15.775Z,5.70
2023-03-23T21:29:49.405Z,5.40
2023-03-23T21:30:23.246Z,5.60
2023-03-23T21:31:03.762Z,5.60
2023-03-23T21:31:38.314Z,7.90
2023-03-23T21:32:12.082Z,7.20
2023-03-23T21:32:45.840Z,5.70
2023-03-23T21:33:20.302Z,6.70
2023-03-23T21:33:53.929Z,5.40
2023-03-23T21:34:28.074Z,5.10
2023-03-23T21:35:03.091Z,8.30
2023-03-23T21:35:37.034Z,4.80
2023-03-23T21:36:13.330Z,5.90
2023-03-23T21:36:46.944Z,4.40
2023-03-23T21:37:21.006Z,6.00
2023-03-23T21:37:54.505Z,5.00
2023-03-23T21:38:29.100Z,5.50
2023-03-23T21:39:04.711Z,5.80
2023-03-23T21:39:38.397Z,5.20
2023-03-23T21:40:14.940Z,5.10
2023-03-23T21:40:48.942Z,4.50
2023-03-23T21:41:23.201Z,5.20
2023-03-23T21:41:56.767Z,5.20
2023-03-23T21:42:30.695Z,3.50
2023-03-23T21:43:04.538Z,5.20
2023-03-23T21:43:40.986Z,4.20
2023-03-23T21:44:15.455Z,4.60
2023-03-23T21:44:51.490Z,4.10
2023-03-23T21:45:25.893Z,4.00
2023-03-23T21:46:03.172Z,3.50
2023-03-23T21:46:40.890Z,3.30
2023-03-23T21:47:14.497Z,5.00
2023-03-23T21:47:51.805Z,3.70
2023-03-23T21:48:28.046Z,6.50
2023-03-23T21:49:01.686Z,5.80
2023-03-23T21:49:36.090Z,4.50
2023-03-23T21:50:15.471Z,5.80
2023-03-23T21:50:49.635Z,3.90
2023-03-23T21:51:25.571Z,5.10
2023-03-23T21:51:59.221Z,5.00
2023-03-23T21:52:33.647Z,4.90
2023-03-23T21:53:07.278Z,6.20
2023-03-23T21:53:44.603Z,4.70
2023-03-23T21:54:18.288Z,4.40
2023-03-23T21:54:54.524Z,7.80
2023-03-23T21:55:29.849Z,4.40
2023-03-23T21:56:05.533Z,4.70
2023-03-23T21:56:39.834Z,4.90
2023-03-23T21:57:13.550Z,4.00
2023-03-23T21:57:47.420Z,5.00
2023-03-23T21:58:24.416Z,4.70
2023-03-23T21:58:58.113Z,6.00
2023-03-23T21:59:31.696Z,5.80
2023-03-23T22:00:08.521Z,4.60
2023-03-23T22:00:42.336Z,6.40
2023-03-23T22:01:19.161Z,4.40
2023-03-23T22:01:54.079Z,5.40
2023-03-23T22:02:27.712Z,7.10
2023-03-23T22:03:02.957Z,4.50
2023-03-23T22:03:37.733Z,5.00
2023-03-23T22:04:11.768Z,5.20
2023-03-23T22:04:45.618Z,4.80
2023-03-23T22:05:20.529Z,4.90
2023-03-23T22:05:54.868Z,6.70
2023-03-23T22:06:29.165Z,5.60
2023-03-23T22:07:02.733Z,5.10
2023-03-23T22:07:39.284Z,5.20
2023-03-23T22:08:12.963Z,5.10
2023-03-23T22:08:47.377Z,5.20
2023-03-23T22:09:21.060Z,5.80
2023-03-23T22:09:54.869Z,6.30
2023-03-23T22:10:28.599Z,6.70
2023-03-23T22:11:06.176Z,7.30
2023-03-23T22:11:42.014Z,6.40
2023-03-23T22:12:15.910Z,6.20
2023-03-23T22:12:53.687Z,8.20
2023-03-23T22:13:32.734Z,6.30
2023-03-23T22:14:07.415Z,5.50
2023-03-23T22:14:41.105Z,5.90
2023-03-23T22:15:15.497Z,5.90
2023-03-23T22:15:51.191Z,5.70
2023-03-23T22:16:25.740Z,5.60
2023-03-23T22:17:00.725Z,6.00
2023-03-23T22:17:38.161Z,7.10
2023-03-23T22:18:11.972Z,4.80
2023-03-23T22:18:46.937Z,4.80
2023-03-23T22:19:21.400Z,7.30
2023-03-23T22:19:55.153Z,7.90
2023-03-23T22:20:29.758Z,7.30
2023-03-23T22:21:05.466Z,8.90
2023-03-23T22:21:39.406Z,7.90
2023-03-23T22:22:13.488Z,7.70
2023-03-23T22:22:53.772Z,8.40
2023-03-23T22:23:28.464Z,7.60
2023-03-23T22:24:04.870Z,6.10
2023-03-23T22:24:38.736Z,7.90
2023-03-23T22:25:13.646Z,6.00
2023-03-23T22:25:47.484Z,9.70
2023-03-23T22:26:21.396Z,6.80
2023-03-23T22:26:55.017Z,11.20
2023-03-23T22:27:28.683Z,6.60
2023-03-23T22:28:04.865Z,9.50
2023-03-23T22:28:39.707Z,8.70
2023-03-23T22:29:15.146Z,8.20
2023-03-23T22:29:48.827Z,9.10
2023-03-23T22:30:23.777Z,8.20
2023-03-23T22:31:06.665Z,6.40
2023-03-23T22:31:42.120Z,6.30
2023-03-23T22:32:18.879Z,5.60
2023-03-23T22:32:52.618Z,6.70
2023-03-23T22:33:26.322Z,7.80
2023-03-23T22:34:01.867Z,6.20
2023-03-23T22:34:35.764Z,6.00
2023-03-23T22:35:12.697Z,5.40
2023-03-23T22:35:48.012Z,6.80
2023-03-23T22:36:24.129Z,9.50
2023-03-23T22:36:57.872Z,7.30
2023-03-23T22:37:31.665Z,4.80
2023-03-23T22:38:05.477Z,5.80
2023-03-23T22:38:42.769Z,7.10
2023-03-23T22:39:17.010Z,5.10
2023-03-23T22:39:50.794Z,5.80
2023-03-23T22:40:24.489Z,6.70
2023-03-23T22:40:59.710Z,7.90
2023-03-23T22:41:37.009Z,5.70
2023-03-23T22:42:12.360Z,5.50
2023-03-23T22:42:47.224Z,6.10
2023-03-23T22:43:20.897Z,4.80
2023-03-23T22:43:54.650Z,7.00
2023-03-23T22:44:28.817Z,6.90
2023-03-23T22:45:03.147Z,4.70
2023-03-23T22:45:37.236Z,6.40
2023-03-23T22:46:10.953Z,5.30
2023-03-23T22:46:45.429Z,5.70
2023-03-23T22:47:19.076Z,6.40
2023-03-23T22:47:53.121Z,5.40
2023-03-23T22:48:28.003Z,9.10
2023-03-23T22:49:02.077Z,6.60
2023-03-23T22:49:35.912Z,4.80
2023-03-23T22:50:10.929Z,7.40
2023-03-23T22:50:47.376Z,6.40
2023-03-23T22:51:24.240Z,5.30
2023-03-23T22:51:58.006Z,4.60
2023-03-23T22:52:31.797Z,5.00
2023-03-23T22:53:05.537Z,6.10
2023-03-23T22:53:39.923Z,5.50
2023-03-23T22:54:13.784Z,4.20
2023-03-23T22:54:48.312Z,5.80
2023-03-23T22:55:22.044Z,4.80
2023-03-23T22:55:57.807Z,7.00
2023-03-23T22:56:31.984Z,6.40
2023-03-23T22:57:05.627Z,6.20
2023-03-23T22:57:39.363Z,5.70
2023-03-23T22:58:13.798Z,6.00
2023-03-23T22:58:47.526Z,5.70
2023-03-23T22:59:21.731Z,5.30
2023-03-23T22:59:55.690Z,5.00
2023-03-23T23:00:29.409Z,4.70
2023-03-23T23:01:13.870Z,6.00
2023-03-23T23:01:48.406Z,5.30
2023-03-23T23:02:24.945Z,6.80
2023-03-23T23:02:59.094Z,5.40
2023-03-23T23:03:34.264Z,5.30
2023-03-23T23:04:08.132Z,6.80
2023-03-23T23:04:41.994Z,5.50
2023-03-23T23:05:16.053Z,5.20
2023-03-23T23:05:51.769Z,5.30
2023-03-23T23:06:25.959Z,4.20
2023-03-23T23:07:12.080Z,4.30
2023-03-23T23:07:46.399Z,9.10
2023-03-23T23:08:20.814Z,7.20
2023-03-23T23:08:54.527Z,6.50
2023-03-23T23:09:28.226Z,6.60
2023-03-23T23:10:01.875Z,5.60
2023-03-23T23:10:36.194Z,9.00
2023-03-23T23:11:12.884Z,6.80
2023-03-23T23:11:46.882Z,6.60
2023-03-23T23:12:21.919Z,9.10
2023-03-23T23:12:55.572Z,6.50
2023-03-23T23:13:31.853Z,7.70
2023-03-23T23:14:06.803Z,8.60
2023-03-23T23:14:43.697Z,8.20
2023-03-23T23:15:17.360Z,6.60
2023-03-23T23:15:53.763Z,6.70
2023-03-23T23:16:27.938Z,6.20
2023-03-23T23:17:01.680Z,8.10
2023-03-23T23:17:38.781Z,9.90
2023-03-23T23:18:12.726Z,6.70
2023-03-23T23:18:50.250Z,11.50
2023-03-23T23:19:24.475Z,8.40
2023-03-23T23:19:59.904Z,8.60
2023-03-23T23:20:34.730Z,6.30
2023-03-23T23:21:11.369Z,7.40
2023-03-23T23:21:44.911Z,7.50
2023-03-23T23:22:19.540Z,9.70
2023-03-23T23:22:53.208Z,8.70
2023-03-23T23:23:27.897Z,8.00
2023-03-23T23:24:01.670Z,10.50
2023-03-23T23:24:35.439Z,6.90
2023-03-23T23:25:10.468Z,6.00
2023-03-23T23:25:44.424Z,6.70
2023-03-23T23:26:19.667Z,4.70
2023-03-23T23:26:53.760Z,4.70
2023-03-23T23:27:27.369Z,4.80
2023-03-23T23:28:06.781Z,4.60
2023-03-23T23:28:42.573Z,4.70
2023-03-23T23:29:16.092Z,5.40
2023-03-23T23:29:49.634Z,5.30
2023-03-23T23:30:23.289Z,5.00
2023-03-23T23:30:56.913Z,6.10
2023-03-23T23:31:33.875Z,6.30
2023-03-23T23:32:07.456Z,4.50
2023-03-23T23:32:43.071Z,8.00
2023-03-23T23:33:16.757Z,6.50
2023-03-23T23:33:50.579Z,5.20
2023-03-23T23:34:25.654Z,7.50
2023-03-23T23:34:59.450Z,6.60
2023-03-23T23:35:34.892Z,4.70
2023-03-23T23:36:09.216Z,6.40
2023-03-23T23:36:43.060Z,8.00
2023-03-23T23:37:16.668Z,5.60
2023-03-23T23:37:50.769Z,4.90
2023-03-23T23:38:26.960Z,6.00
2023-03-23T23:39:02.112Z,6.70
2023-03-23T23:39:38.568Z,5.80
2023-03-23T23:40:15.434Z,5.80
2023-03-23T23:40:49.197Z,5.90
2023-03-23T23:41:23.839Z,4.60
2023-03-23T23:41:57.397Z,7.30
2023-03-23T23:42:31.056Z,6.70
2023-03-23T23:43:05.701Z,6.00
2023-03-23T23:43:39.436Z,6.60
2023-03-23T23:44:13.204Z,6.00
2023-03-23T23:44:47.162Z,6.20
2023-03-23T23:45:21.659Z,5.60
2023-03-23T23:45:55.350Z,6.10
2023-03-23T23:46:30.824Z,5.40
2023-03-23T23:47:06.087Z,5.50
2023-03-23T23:47:40.824Z,5.90
2023-03-23T23:48:14.371Z,6.90
2023-03-23T23:48:48.220Z,6.00
2023-03-23T23:49:28.917Z,7.60
2023-03-23T23:50:37.366Z,6.30
2023-03-23T23:51:15.437Z,9.20
2023-03-23T23:51:49.287Z,5.90
2023-03-23T23:52:23.174Z,6.80
2023-03-23T23:52:58.876Z,6.30
2023-03-23T23:53:32.625Z,7.90
2023-03-23T23:54:06.334Z,6.70
2023-03-23T23:54:42.767Z,5.60
2023-03-23T23:55:17.298Z,5.60
2023-03-23T23:55:50.737Z,6.00
2023-03-23T23:56:25.607Z,7.20
2023-03-23T23:57:01.368Z,5.60
2023-03-23T23:57:36.087Z,3.90
2023-03-23T23:58:09.954Z,7.80
2023-03-23T23:58:43.551Z,6.00
2023-03-23T23:59:17.673Z,7.00
2023-03-23T23:59:51.846Z,6.30
